createdAt,value
2022-10-11T00:02:05.308Z,12.05
2022-10-11T00:04:31.904Z,10.85
2022-10-11T00:06:58.536Z,11.05
2022-10-11T00:09:25.160Z,11.52
2022-10-11T00:11:55.737Z,12.38
2022-10-11T00:14:23.981Z,11.13
2022-10-11T00:16:50.628Z,10.50
2022-10-11T00:19:17.655Z,11.13
2022-10-11T00:21:44.403Z,11.30
2022-10-11T00:24:12.157Z,11.27
2022-10-11T00:26:41.180Z,10.88
2022-10-11T00:29:12.557Z,10.50
2022-10-11T00:31:39.858Z,11.60
2022-10-11T00:34:06.772Z,11.32
2022-10-11T00:36:33.487Z,11.10
2022-10-11T00:39:00.062Z,10.73
2022-10-11T00:41:26.677Z,10.88
2022-10-11T00:44:13.011Z,11.32
2022-10-11T00:46:42.589Z,10.80
2022-10-11T00:49:19.684Z,12.10
2022-10-11T00:51:52.454Z,11.45
2022-10-11T00:54:23.617Z,11.23
2022-10-11T00:56:55.824Z,11.52
2022-10-11T00:59:26.512Z,11.15
2022-10-11T01:01:53.428Z,10.98
2022-10-11T01:04:20.869Z,11.20
2022-10-11T01:06:49.461Z,11.20
2022-10-11T01:09:17.642Z,10.80
2022-10-11T01:11:45.082Z,10.85
2022-10-11T01:14:23.839Z,11.00
2022-10-11T01:17:22.629Z,10.73
2022-10-11T01:19:55.292Z,10.20
2022-10-11T01:22:46.482Z,10.43
2022-10-11T01:25:42.329Z,11.73
2022-10-11T01:28:21.260Z,10.65
2022-10-11T01:30:49.010Z,10.52
2022-10-11T01:33:20.006Z,10.48
2022-10-11T01:35:52.662Z,11.70
2022-10-11T01:38:38.001Z,10.70
2022-10-11T01:41:10.191Z,10.85
2022-10-11T01:43:39.188Z,11.00
2022-10-11T01:46:07.850Z,10.90
2022-10-11T01:48:47.513Z,10.45
2022-10-11T01:51:14.806Z,10.68
2022-10-11T01:53:52.635Z,10.23
2022-10-11T01:57:10.463Z,10.10
2022-10-11T01:59:58.689Z,9.65
2022-10-11T02:02:37.233Z,10.25
2022-10-11T02:05:32.169Z,9.32
2022-10-11T02:08:28.216Z,9.50
2022-10-11T02:11:04.546Z,9.43
2022-10-11T02:13:47.306Z,9.02
2022-10-11T02:16:20.574Z,9.02
2022-10-11T02:18:50.378Z,8.45
2022-10-11T02:21:20.843Z,9.35
2022-10-11T02:23:57.466Z,8.80
2022-10-11T02:26:27.638Z,9.80
2022-10-11T02:28:57.720Z,9.98
2022-10-11T02:31:25.906Z,10.07
2022-10-11T02:34:19.943Z,9.55
2022-10-11T02:39:25.001Z,9.80
2022-10-11T02:44:26.861Z,9.13
2022-10-11T02:46:54.727Z,11.55
2022-10-11T02:49:22.170Z,12.48
2022-10-11T02:51:48.764Z,10.85
2022-10-11T02:54:15.426Z,11.70
2022-10-11T02:56:42.026Z,9.75
2022-10-11T02:59:08.689Z,10.63
2022-10-11T03:01:35.273Z,10.73
2022-10-11T03:04:01.950Z,9.70
2022-10-11T03:06:28.582Z,10.40
2022-10-11T03:08:55.162Z,10.85
2022-10-11T03:11:21.784Z,10.20
2022-10-11T03:13:48.368Z,10.90
2022-10-11T03:16:15.168Z,10.38
2022-10-11T03:18:42.049Z,11.68
2022-10-11T03:21:08.905Z,10.63
2022-10-11T03:23:35.708Z,10.95
2022-10-11T03:26:02.752Z,10.82
2022-10-11T03:28:29.954Z,10.00
2022-10-11T03:30:56.529Z,9.35
2022-10-11T03:33:23.224Z,9.93
2022-10-11T03:35:50.492Z,9.63
2022-10-11T03:38:20.825Z,11.50
2022-10-11T03:40:48.129Z,10.00
2022-10-11T03:43:14.867Z,11.10
2022-10-11T03:45:44.439Z,12.80
2022-10-11T03:48:12.088Z,11.90
2022-10-11T03:50:39.230Z,12.23
2022-10-11T03:53:06.996Z,11.95
2022-10-11T03:55:33.743Z,11.73
2022-10-11T03:58:00.465Z,13.68
2022-10-11T04:00:27.185Z,12.63
2022-10-11T04:02:53.867Z,14.07
2022-10-11T04:05:20.526Z,14.20
2022-10-11T04:07:47.361Z,14.40
2022-10-11T04:10:14.321Z,19.52
2022-10-11T04:12:41.063Z,19.77
2022-10-11T04:15:08.256Z,19.77
2022-10-11T04:17:34.816Z,18.35
2022-10-11T04:20:01.636Z,18.50
2022-10-11T04:22:28.227Z,15.20
2022-10-11T04:24:54.764Z,13.98
2022-10-11T04:27:21.709Z,14.52
2022-10-11T04:29:48.316Z,14.52
2022-10-11T04:32:15.016Z,15.02
2022-10-11T04:34:41.605Z,15.57
2022-10-11T04:37:08.205Z,15.35
2022-10-11T04:39:34.759Z,15.18
2022-10-11T04:42:01.332Z,14.55
2022-10-11T04:44:28.215Z,13.90
2022-10-11T04:46:54.801Z,14.27
2022-10-11T04:49:21.623Z,13.05
2022-10-11T04:51:48.412Z,13.98
2022-10-11T04:54:15.126Z,14.90
2022-10-11T04:56:41.758Z,13.70
2022-10-11T04:59:08.572Z,13.27
2022-10-11T05:01:35.460Z,12.07
2022-10-11T05:04:02.161Z,12.80
2022-10-11T05:06:28.748Z,11.15
2022-10-11T05:08:55.438Z,11.25
2022-10-11T05:11:22.231Z,12.20
2022-10-11T05:13:49.127Z,11.23
2022-10-11T05:16:17.900Z,10.70
2022-10-11T05:18:45.237Z,10.35
2022-10-11T05:21:18.654Z,12.02
2022-10-11T05:23:47.586Z,12.23
2022-10-11T05:26:14.786Z,11.18
2022-10-11T05:28:41.708Z,10.68
2022-10-11T05:31:08.526Z,11.52
2022-10-11T05:33:35.205Z,9.13
2022-10-11T05:36:02.276Z,9.55
2022-10-11T05:38:29.136Z,10.27
2022-10-11T05:41:00.311Z,9.48
2022-10-11T05:43:28.061Z,9.82
2022-10-11T05:45:54.942Z,9.88
2022-10-11T05:48:22.120Z,9.52
2022-10-11T05:50:48.766Z,9.10
2022-10-11T05:53:15.399Z,9.38
2022-10-11T05:55:43.427Z,9.23
2022-10-11T05:58:14.910Z,9.05
2022-10-11T06:00:41.561Z,8.60
2022-10-11T06:03:10.517Z,8.43
2022-10-11T06:05:37.590Z,7.68
2022-10-11T06:08:06.106Z,7.38
2022-10-11T06:10:33.035Z,6.70
2022-10-11T06:12:59.700Z,7.25
2022-10-11T06:15:26.540Z,5.70
2022-10-11T06:17:53.182Z,6.13
2022-10-11T06:20:19.897Z,6.35
2022-10-11T06:22:46.454Z,6.70
2022-10-11T06:25:13.101Z,6.55
2022-10-11T06:27:39.652Z,6.22
2022-10-11T06:30:07.453Z,6.50
2022-10-11T06:32:34.073Z,7.93
2022-10-11T06:35:00.821Z,7.03
2022-10-11T06:37:27.428Z,7.00
2022-10-11T06:39:54.032Z,6.97
2022-10-11T06:42:20.666Z,7.25
2022-10-11T06:44:47.214Z,7.78
2022-10-11T06:47:13.776Z,6.90
2022-10-11T06:49:40.383Z,7.40
2022-10-11T06:52:07.140Z,7.00
2022-10-11T06:54:33.753Z,7.85
2022-10-11T06:57:00.324Z,7.78
2022-10-11T06:59:26.910Z,7.57
2022-10-11T07:01:53.468Z,8.48
2022-10-11T07:04:20.042Z,7.28
2022-10-11T07:06:46.672Z,8.70
2022-10-11T07:09:13.336Z,7.50
2022-10-11T07:11:39.911Z,7.90
2022-10-11T07:14:07.992Z,8.57
2022-10-11T07:16:36.437Z,8.02
2022-10-11T07:19:05.946Z,7.82
2022-10-11T07:21:34.424Z,6.65
2022-10-11T07:24:01.749Z,7.95
2022-10-11T07:26:32.508Z,8.15
2022-10-11T07:29:03.913Z,7.22
2022-10-11T07:31:30.838Z,7.20
2022-10-11T07:33:57.392Z,7.50
2022-10-11T07:36:24.215Z,7.00
2022-10-11T07:38:51.208Z,7.22
2022-10-11T07:41:18.401Z,6.85
2022-10-11T07:43:47.043Z,6.75
2022-10-11T07:46:14.282Z,6.97
2022-10-11T07:48:41.293Z,7.80
2022-10-11T07:51:20.337Z,7.15
2022-10-11T07:53:49.642Z,6.25
2022-10-11T07:56:19.006Z,6.90
2022-10-11T07:58:50.549Z,5.97
2022-10-11T08:01:18.287Z,6.25
2022-10-11T08:03:44.880Z,6.05
2022-10-11T08:06:14.861Z,6.45
2022-10-11T08:08:41.508Z,6.35
2022-10-11T08:11:08.262Z,10.07
2022-10-11T08:13:35.459Z,6.60
2022-10-11T08:16:09.053Z,6.53
2022-10-11T08:18:35.737Z,8.10
2022-10-11T08:21:07.035Z,7.93
2022-10-11T08:23:33.729Z,6.95
2022-10-11T08:26:00.479Z,6.65
2022-10-11T08:28:27.130Z,6.78
2022-10-11T08:30:55.036Z,6.70
2022-10-11T08:33:23.772Z,6.78
2022-10-11T08:35:52.587Z,6.93
2022-10-11T08:38:20.255Z,7.05
2022-10-11T08:40:58.628Z,8.40
2022-10-11T08:43:49.695Z,8.68
2022-10-11T08:46:20.990Z,7.13
2022-10-11T08:48:51.956Z,6.93
2022-10-11T08:51:35.467Z,7.25
2022-10-11T08:54:20.584Z,7.47
2022-10-11T08:56:47.390Z,6.40
2022-10-11T08:59:13.910Z,6.93
2022-10-11T09:01:47.436Z,7.45
2022-10-11T09:04:16.221Z,7.95
2022-10-11T09:06:53.446Z,7.28
2022-10-11T09:09:28.684Z,7.63
2022-10-11T09:12:20.067Z,7.47
2022-10-11T09:15:01.849Z,14.48
2022-10-11T09:17:37.100Z,10.90
2022-10-11T09:20:22.190Z,6.55
2022-10-11T09:22:56.974Z,6.22
2022-10-11T09:25:26.085Z,7.45
2022-10-11T09:28:30.571Z,7.28
2022-10-11T09:30:59.205Z,8.10
2022-10-11T09:33:47.479Z,7.55
2022-10-11T09:36:32.623Z,8.10
2022-10-11T09:39:06.768Z,6.85
2022-10-11T09:41:41.751Z,7.45
2022-10-11T09:44:12.663Z,7.78
2022-10-11T09:46:42.389Z,9.90
2022-10-11T09:49:15.952Z,6.78
2022-10-11T09:51:49.815Z,8.13
2022-10-11T09:54:18.188Z,7.05
2022-10-11T09:56:46.293Z,6.63
2022-10-11T09:59:32.369Z,6.40
2022-10-11T10:02:14.497Z,6.60
2022-10-11T10:05:14.196Z,6.43
2022-10-11T10:08:05.256Z,6.68
2022-10-11T10:11:00.030Z,6.75
2022-10-11T10:13:49.989Z,7.57
2022-10-11T10:16:37.231Z,7.63
2022-10-11T10:19:18.196Z,12.40
2022-10-11T10:21:50.524Z,6.40
2022-10-11T10:24:34.041Z,8.07
2022-10-11T10:27:24.926Z,6.75
2022-10-11T10:30:14.867Z,7.22
2022-10-11T10:32:53.526Z,6.60
2022-10-11T10:36:08.273Z,6.78
2022-10-11T10:38:47.498Z,7.72
2022-10-11T10:41:18.108Z,6.60
2022-10-11T10:43:58.797Z,6.60
2022-10-11T10:46:53.291Z,6.00
2022-10-11T10:49:52.606Z,7.00
2022-10-11T10:52:39.829Z,10.65
2022-10-11T10:55:25.424Z,7.75
2022-10-11T10:57:57.931Z,7.70
2022-10-11T11:00:24.892Z,7.47
2022-10-11T11:03:02.494Z,6.60
2022-10-11T11:05:37.804Z,6.57
2022-10-11T11:08:17.349Z,6.68
2022-10-11T11:11:03.901Z,6.25
2022-10-11T11:13:41.871Z,6.80
2022-10-11T11:16:31.768Z,7.18
2022-10-11T11:19:06.318Z,7.65
2022-10-11T11:21:56.632Z,7.40
2022-10-11T11:25:00.323Z,7.10
2022-10-11T11:27:45.584Z,7.32
2022-10-11T11:30:18.559Z,6.53
2022-10-11T11:32:55.094Z,6.70
2022-10-11T11:35:21.748Z,6.25
2022-10-11T11:37:57.392Z,6.38
2022-10-11T11:40:43.623Z,6.80
2022-10-11T11:43:27.224Z,6.60
2022-10-11T11:45:59.411Z,6.05
2022-10-11T11:48:26.890Z,6.60
2022-10-11T11:51:13.357Z,7.15
2022-10-11T11:54:06.119Z,8.48
2022-10-11T11:57:02.571Z,7.05
2022-10-11T11:59:50.914Z,7.68
2022-10-11T12:02:29.716Z,6.72
2022-10-11T12:04:57.089Z,7.35
2022-10-11T12:07:27.255Z,7.22
2022-10-11T12:10:15.183Z,7.65
2022-10-11T12:12:42.152Z,8.07
2022-10-11T12:15:09.174Z,7.30
2022-10-11T12:17:57.748Z,7.07
2022-10-11T12:20:25.860Z,7.13
2022-10-11T12:22:58.461Z,6.45
2022-10-11T12:25:28.750Z,6.45
2022-10-11T12:27:58.433Z,7.32
2022-10-11T12:30:47.110Z,6.63
2022-10-11T12:33:32.825Z,6.88
2022-10-11T12:36:21.975Z,7.28
2022-10-11T12:39:20.514Z,7.47
2022-10-11T12:42:06.043Z,6.82
2022-10-11T12:44:32.781Z,6.25
2022-10-11T12:47:43.864Z,7.38
2022-10-11T12:50:22.846Z,7.03
2022-10-11T12:52:55.438Z,6.85
2022-10-11T12:55:30.798Z,6.93
2022-10-11T12:58:38.307Z,7.05
2022-10-11T13:01:05.230Z,7.10
2022-10-11T13:03:37.576Z,7.40
2022-10-11T13:06:20.267Z,7.05
2022-10-11T13:08:59.025Z,7.55
2022-10-11T13:11:31.028Z,7.10
2022-10-11T13:14:01.257Z,6.75
2022-10-11T13:16:42.088Z,6.88
2022-10-11T13:19:14.010Z,7.47
2022-10-11T13:21:40.751Z,6.15
2022-10-11T13:24:14.597Z,8.38
2022-10-11T13:26:43.193Z,7.50
2022-10-11T13:29:16.919Z,6.05
2022-10-11T13:31:46.769Z,7.43
2022-10-11T13:34:14.085Z,8.20
2022-10-11T13:36:41.031Z,6.65
2022-10-11T13:39:08.359Z,6.60
2022-10-11T13:41:35.327Z,8.23
2022-10-11T13:44:03.124Z,7.25
2022-10-11T13:46:31.455Z,6.70
2022-10-11T13:49:22.835Z,7.40
2022-10-11T13:52:01.631Z,7.15
2022-10-11T13:55:05.972Z,7.25
2022-10-11T14:00:14.784Z,6.93
2022-10-11T14:02:54.740Z,6.65
2022-10-11T14:05:29.642Z,6.35
2022-10-11T14:07:58.626Z,6.90
2022-10-11T14:10:26.018Z,7.35
2022-10-11T14:13:02.514Z,8.10
2022-10-11T14:15:37.410Z,8.15
2022-10-11T14:18:42.948Z,7.78
2022-10-11T14:21:36.303Z,7.05
2022-10-11T14:24:06.478Z,7.22
2022-10-11T14:26:48.255Z,6.50
2022-10-11T14:29:23.616Z,8.00
2022-10-11T14:31:51.069Z,9.40
2022-10-11T14:34:22.536Z,8.73
2022-10-11T14:36:49.950Z,6.82
2022-10-11T14:39:22.496Z,8.80
2022-10-11T14:41:54.475Z,7.43
2022-10-11T14:44:22.040Z,7.53
2022-10-11T14:46:50.805Z,9.13
2022-10-11T14:52:21.085Z,8.68
2022-10-11T14:54:47.645Z,7.70
2022-10-11T14:57:14.195Z,8.70
2022-10-11T14:59:43.773Z,8.55
2022-10-11T15:02:21.082Z,8.02
2022-10-11T15:04:47.809Z,7.90
2022-10-11T15:07:15.894Z,8.05
2022-10-11T15:09:43.358Z,8.38
2022-10-11T15:12:10.003Z,9.13
2022-10-11T15:14:36.735Z,8.10
2022-10-11T15:17:03.452Z,9.40
2022-10-11T15:19:30.074Z,7.78
2022-10-11T15:21:56.784Z,9.05
2022-10-11T15:24:23.445Z,8.50
2022-10-11T15:26:50.620Z,9.30
2022-10-11T15:29:18.207Z,9.52
2022-10-11T15:31:49.561Z,10.35
2022-10-11T15:34:16.862Z,9.40
2022-10-11T15:36:44.203Z,10.20
2022-10-11T15:39:32.717Z,10.15
2022-10-11T15:41:59.897Z,10.07
2022-10-11T15:44:26.643Z,10.85
2022-10-11T15:46:53.606Z,9.95
2022-10-11T15:49:20.653Z,9.88
2022-10-11T15:51:47.273Z,9.52
2022-10-11T15:54:13.880Z,10.88
2022-10-11T15:56:40.534Z,10.48
2022-10-11T15:59:07.176Z,11.15
2022-10-11T16:01:33.788Z,10.35
2022-10-11T16:04:00.408Z,12.30
2022-10-11T16:06:27.871Z,16.17
2022-10-11T16:08:54.453Z,13.85
2022-10-11T16:11:21.015Z,14.02
2022-10-11T16:13:48.894Z,13.50
2022-10-11T16:16:15.477Z,21.55
2022-10-11T16:18:42.189Z,10.48
2022-10-11T16:21:11.171Z,10.40
2022-10-11T16:23:38.916Z,9.73
2022-10-11T16:26:09.063Z,9.30
2022-10-11T16:28:36.359Z,10.40
2022-10-11T16:31:08.542Z,9.68
2022-10-11T16:33:38.138Z,9.07
2022-10-11T16:36:26.968Z,10.65
2022-10-11T16:38:54.126Z,12.73
2022-10-11T16:41:20.740Z,13.10
2022-10-11T16:43:55.387Z,10.65
2022-10-11T16:46:22.760Z,10.65
2022-10-11T16:48:49.540Z,10.38
2022-10-11T16:51:16.349Z,11.55
2022-10-11T16:53:43.014Z,11.15
2022-10-11T16:56:18.013Z,10.52
2022-10-11T16:58:44.998Z,9.98
2022-10-11T17:01:11.678Z,10.52
2022-10-11T17:03:38.711Z,9.63
2022-10-11T17:06:06.231Z,10.48
2022-10-11T17:08:33.412Z,10.02
2022-10-11T17:11:00.444Z,9.70
2022-10-11T17:13:27.785Z,9.25
2022-10-11T17:15:58.899Z,12.93
2022-10-11T17:18:26.109Z,11.32
2022-10-11T17:21:04.573Z,10.35
2022-10-11T17:23:31.225Z,9.38
2022-10-11T17:25:57.892Z,9.88
2022-10-11T17:28:24.601Z,10.13
2022-10-11T17:30:56.793Z,10.52
2022-10-11T17:33:28.799Z,10.07
2022-10-11T17:35:59.502Z,9.70
2022-10-11T17:38:27.909Z,9.93
2022-10-11T17:41:01.764Z,9.70
2022-10-11T17:43:29.016Z,11.05
2022-10-11T17:46:00.178Z,10.30
2022-10-11T17:48:28.149Z,10.30
2022-10-11T17:50:55.122Z,9.95
2022-10-11T17:53:21.840Z,10.98
2022-10-11T17:55:50.626Z,10.63
2022-10-11T17:58:18.231Z,11.38
2022-10-11T18:00:45.508Z,11.52
2022-10-11T18:03:12.263Z,11.43
2022-10-11T18:05:40.140Z,10.63
2022-10-11T18:08:07.526Z,11.50
2022-10-11T18:10:37.840Z,12.30
2022-10-11T18:13:06.849Z,10.75
2022-10-11T18:15:34.057Z,12.05
2022-10-11T18:18:00.981Z,13.32
2022-10-11T18:20:27.651Z,11.55
2022-10-11T18:22:54.321Z,12.38
2022-10-11T18:25:20.918Z,13.20
2022-10-11T18:27:47.505Z,11.90
2022-10-11T18:30:14.667Z,12.27
2022-10-11T18:32:41.312Z,13.07
2022-10-11T18:35:08.318Z,13.45
2022-10-11T18:37:42.322Z,13.43
2022-10-11T18:40:09.263Z,13.50
2022-10-11T18:42:36.284Z,13.27
2022-10-11T18:45:11.174Z,13.30
2022-10-11T18:47:42.560Z,12.20
2022-10-11T18:50:10.034Z,12.98
2022-10-11T18:52:39.160Z,14.13
2022-10-11T18:55:08.421Z,15.27
2022-10-11T18:57:35.072Z,15.73
2022-10-11T19:00:11.747Z,15.68
2022-10-11T19:02:48.840Z,14.43
2022-10-11T19:05:15.639Z,11.77
2022-10-11T19:07:44.573Z,10.98
2022-10-11T19:10:11.234Z,10.77
2022-10-11T19:12:37.905Z,10.10
2022-10-11T19:15:04.982Z,11.02
2022-10-11T19:17:31.679Z,10.75
2022-10-11T19:19:59.583Z,11.13
2022-10-11T19:22:26.575Z,12.23
2022-10-11T19:24:53.182Z,12.02
2022-10-11T19:27:19.739Z,12.88
2022-10-11T19:29:46.382Z,13.57
2022-10-11T19:32:13.036Z,13.68
2022-10-11T19:34:39.613Z,13.25
2022-10-11T19:37:06.283Z,11.85
2022-10-11T19:39:32.905Z,12.15
2022-10-11T19:42:00.349Z,12.48
2022-10-11T19:44:27.005Z,14.68
2022-10-11T19:46:53.679Z,13.23
2022-10-11T19:49:25.343Z,11.35
2022-10-11T19:51:55.633Z,12.05
2022-10-11T19:54:22.964Z,10.65
2022-10-11T19:56:49.584Z,12.68
2022-10-11T19:59:16.886Z,11.98
2022-10-11T20:01:52.301Z,11.80
2022-10-11T20:04:51.101Z,10.80
2022-10-11T20:07:07.632Z,10.90
2022-10-11T20:09:34.294Z,9.68
2022-10-11T20:12:00.866Z,11.27
2022-10-11T20:14:27.492Z,11.13
2022-10-11T20:16:54.165Z,11.68
2022-10-11T20:19:26.184Z,10.57
2022-10-11T20:21:56.017Z,11.13
2022-10-11T20:24:22.600Z,10.82
2022-10-11T20:26:49.278Z,11.85
2022-10-11T20:29:15.846Z,12.95
2022-10-11T20:31:42.898Z,12.25
2022-10-11T20:34:10.379Z,13.80
2022-10-11T20:36:37.609Z,13.63
2022-10-11T20:39:05.880Z,11.60
2022-10-11T20:41:39.845Z,11.55
2022-10-11T20:44:08.843Z,11.45
2022-10-11T20:46:39.163Z,11.32
2022-10-11T20:49:09.329Z,9.75
2022-10-11T20:51:37.737Z,11.25
2022-10-11T20:54:05.132Z,11.23
2022-10-11T20:56:32.424Z,13.75
2022-10-11T20:58:59.306Z,9.63
2022-10-11T21:01:31.793Z,9.55
2022-10-11T21:04:00.067Z,9.60
2022-10-11T21:06:28.432Z,9.80
2022-10-11T21:08:56.495Z,9.13
2022-10-11T21:11:33.442Z,8.63
2022-10-11T21:14:03.009Z,11.75
2022-10-11T21:16:30.032Z,8.13
2022-10-11T21:18:58.464Z,6.80
2022-10-11T21:21:26.092Z,9.27
2022-10-11T21:23:57.522Z,8.32
2022-10-11T21:26:24.875Z,7.80
2022-10-11T21:28:51.565Z,7.43
2022-10-11T21:31:20.181Z,10.00
2022-10-11T21:33:46.995Z,8.07
2022-10-11T21:36:22.350Z,7.18
2022-10-11T21:38:50.540Z,6.68
2022-10-11T21:41:19.973Z,7.15
2022-10-11T21:43:47.753Z,6.75
2022-10-11T21:46:21.435Z,7.03
2022-10-11T21:48:50.019Z,9.18
2022-10-11T21:51:23.585Z,5.93
2022-10-11T21:56:17.562Z,7.22
2022-10-11T21:58:47.786Z,6.32
2022-10-11T22:01:14.775Z,6.22
2022-10-11T22:03:41.538Z,6.65
2022-10-11T22:06:08.583Z,5.47
2022-10-11T22:08:35.257Z,5.47
2022-10-11T22:11:01.987Z,8.32
2022-10-11T22:13:31.176Z,9.05
2022-10-11T22:15:57.838Z,7.45
2022-10-11T22:18:25.108Z,10.07
2022-10-11T22:20:51.777Z,5.78
2022-10-11T22:23:19.220Z,6.05
2022-10-11T22:25:45.944Z,6.97
2022-10-11T22:28:13.083Z,5.38
2022-10-11T22:30:39.758Z,6.05
2022-10-11T22:33:06.652Z,5.63
2022-10-11T22:35:37.455Z,5.57
2022-10-11T22:38:06.116Z,6.72
2022-10-11T22:40:32.930Z,6.40
2022-10-11T22:42:59.456Z,7.80
2022-10-11T22:45:26.010Z,9.05
2022-10-11T22:47:52.577Z,7.97
2022-10-11T22:50:19.330Z,8.60
2022-10-11T22:52:45.910Z,7.70
2022-10-11T22:55:19.006Z,10.40
2022-10-11T22:57:46.667Z,7.40
2022-10-11T23:00:13.717Z,5.35
2022-10-11T23:02:40.330Z,5.18
2022-10-11T23:05:07.171Z,5.32
2022-10-11T23:07:33.917Z,5.35
2022-10-11T23:10:00.952Z,5.63
2022-10-11T23:12:27.497Z,4.97
2022-10-11T23:14:54.130Z,5.28
2022-10-11T23:17:20.791Z,5.47
2022-10-11T23:19:47.458Z,5.65
2022-10-11T23:22:14.417Z,5.30
2022-10-11T23:24:40.998Z,5.45
2022-10-11T23:27:08.076Z,6.40
2022-10-11T23:29:34.674Z,6.20
2022-10-11T23:32:01.327Z,5.88
2022-10-11T23:34:27.928Z,6.65
2022-10-11T23:36:54.502Z,6.72
2022-10-11T23:39:21.306Z,6.93
2022-10-11T23:41:47.892Z,6.60
2022-10-11T23:44:14.489Z,7.10
2022-10-11T23:46:41.078Z,7.28
2022-10-11T23:49:07.614Z,7.72
2022-10-11T23:51:34.195Z,8.35
2022-10-11T23:54:00.749Z,7.97
2022-10-11T23:56:27.387Z,7.75
2022-10-11T23:58:54.118Z,7.40
